Time;durP1;ratioP1;P1;durP2;ratioP2;P2;SDS_P1;SDS_P2;PMS_P1;PMS_P2;Temp;Humidity;BMP_temperature;BMP_pressure;BME280_temperature;BME280_humidity;BME280_pressure;Samples;Min_cycle;Max_cycle;Signal;HPM_P1;HPM_P2
2022/08/29 00:01:05;;;;;;;6.75;5.15;;;;;;;16.19;100.00;96090.59;5013467;28;25004;-80
2022/08/29 00:03:32;;;;;;;6.03;5.40;;;;;;;16.23;100.00;96088.56;5015019;28;24444;-80
2022/08/29 00:06:00;;;;;;;13.70;5.80;;;;;;;16.24;100.00;96088.47;5012847;28;24443;-79
2022/08/29 00:08:27;;;;;;;6.32;5.43;;;;;;;16.28;100.00;96087.25;5021720;28;25027;-79
2022/08/29 00:10:54;;;;;;;8.63;5.53;;;;;;;16.28;100.00;96091.63;5013954;28;24443;-80
2022/08/29 00:13:20;;;;;;;8.27;5.50;;;;;;;16.28;100.00;96096.88;5021085;28;24442;-79
2022/08/29 00:15:47;;;;;;;5.97;5.38;;;;;;;16.25;100.00;96086.69;5021831;28;24981;-79
2022/08/29 00:18:16;;;;;;;10.02;5.15;;;;;;;16.27;100.00;96092.59;5023476;28;24499;-79
2022/08/29 00:20:43;;;;;;;5.90;5.07;;;;;;;16.24;100.00;96085.00;5021252;28;24794;-80
2022/08/29 00:23:11;;;;;;;6.68;5.05;;;;;;;16.13;100.00;96086.72;5023881;28;24436;-79
2022/08/29 00:25:38;;;;;;;6.97;4.43;;;;;;;15.97;100.00;96087.06;5007749;28;24433;-80
2022/08/29 00:28:05;;;;;;;5.10;4.15;;;;;;;15.72;100.00;96085.59;5023761;28;24443;-79
2022/08/29 00:30:33;;;;;;;7.10;4.30;;;;;;;15.64;100.00;96090.53;5024319;28;24444;-80
2022/08/29 00:33:00;;;;;;;5.80;4.32;;;;;;;15.56;100.00;96081.63;5019154;28;24428;-79
2022/08/29 00:35:29;;;;;;;7.03;4.20;;;;;;;15.54;100.00;96084.38;5024164;28;24459;-80
2022/08/29 00:37:55;;;;;;;5.00;4.05;;;;;;;15.44;100.00;96079.03;5023503;28;24447;-80
2022/08/29 00:40:26;;;;;;;7.75;4.60;;;;;;;15.35;100.00;96078.91;5033052;28;24527;-79
2022/08/29 00:42:53;;;;;;;4.47;4.00;;;;;;;15.31;100.00;96087.91;5018342;28;24432;-79
2022/08/29 00:45:19;;;;;;;6.50;4.30;;;;;;;15.33;100.00;96083.41;5017283;28;24427;-79
2022/08/29 00:47:51;;;;;;;5.97;4.32;;;;;;;15.35;100.00;96087.59;5015082;28;24437;-79
2022/08/29 00:50:23;;;;;;;5.72;4.10;;;;;;;15.33;100.00;96088.63;5016876;28;24448;-79
2022/08/29 00:52:50;;;;;;;4.10;3.70;;;;;;;15.31;100.00;96082.69;5021295;28;24437;-79
2022/08/29 00:55:21;;;;;;;4.97;4.47;;;;;;;15.27;100.00;96081.28;5019791;28;24537;-79
2022/08/29 00:57:56;;;;;;;4.90;4.40;;;;;;;15.22;100.00;96082.44;5020186;28;24997;-79
2022/08/29 01:00:24;;;;;;;5.78;4.95;;;;;;;15.30;100.00;96083.66;5023668;28;24443;-79
2022/08/29 01:02:51;;;;;;;6.80;4.85;;;;;;;15.29;100.00;96097.66;5021192;28;24451;-79
2022/08/29 01:05:18;;;;;;;6.05;4.32;;;;;;;15.33;100.00;96088.63;5026176;28;24874;-79
2022/08/29 01:07:46;;;;;;;5.75;4.43;;;;;;;15.27;100.00;96089.09;5020574;28;24591;-79
2022/08/29 01:12:14;;;;;;;6.15;4.72;;;;;;;15.25;100.00;96090.06;5023575;28;24444;-79
2022/08/29 01:13:02;;;;;;;5.72;4.40;;;;;;;15.22;100.00;96099.88;5020304;28;25064;-79
2022/08/29 01:15:31;;;;;;;5.83;4.60;;;;;;;15.22;100.00;96092.88;5018030;28;24814;-79
2022/08/29 01:17:59;;;;;;;4.93;4.32;;;;;;;15.19;100.00;96097.50;5011212;28;24439;-79
2022/08/29 01:20:34;;;;;;;7.32;4.65;;;;;;;15.21;100.00;96093.84;5002351;28;24460;-79
2022/08/29 01:23:08;;;;;;;4.97;4.45;;;;;;;15.25;100.00;96097.88;5016928;28;24447;-79
2022/08/29 01:25:39;;;;;;;5.05;4.13;;;;;;;15.23;100.00;96091.09;5021476;28;24794;-79
2022/08/29 01:28:11;;;;;;;7.72;4.50;;;;;;;15.20;100.00;96094.81;5010401;28;25245;-79
2022/08/29 01:30:57;;;;;;;5.23;4.73;;;;;;;15.14;100.00;96099.66;5023256;28;24532;-79
2022/08/29 01:33:24;;;;;;;6.40;4.43;;;;;;;15.10;100.00;96103.44;5016333;28;24440;-79
2022/08/29 01:35:50;;;;;;;4.82;4.30;;;;;;;15.07;100.00;96094.06;5014466;28;24453;-79
2022/08/29 01:38:26;;;;;;;4.80;4.30;;;;;;;15.06;100.00;96100.22;5021858;28;24485;-79
2022/08/29 01:40:54;;;;;;;5.20;4.22;;;;;;;15.05;100.00;96090.72;5016934;28;24528;-79
2022/08/29 01:43:21;;;;;;;4.30;3.80;;;;;;;15.07;100.00;96094.06;5015324;28;24531;-79
2022/08/29 01:45:48;;;;;;;4.75;3.95;;;;;;;15.05;100.00;96098.53;5009570;28;24491;-79
2022/08/29 01:48:15;;;;;;;5.82;4.15;;;;;;;14.81;100.00;96090.78;5011979;28;24957;-79
2022/08/29 01:50:42;;;;;;;5.28;4.20;;;;;;;14.71;100.00;96097.63;5022240;28;24440;-79
2022/08/29 01:53:08;;;;;;;5.13;4.43;;;;;;;14.69;100.00;96100.38;5012565;28;24528;-80
2022/08/29 01:55:36;;;;;;;4.53;4.10;;;;;;;14.64;100.00;96097.25;5010208;28;24811;-79
2022/08/29 01:58:04;;;;;;;5.32;3.90;;;;;;;14.59;100.00;96104.59;5024195;28;24443;-79
2022/08/29 02:00:31;;;;;;;4.00;3.58;;;;;;;14.62;100.00;96099.16;5022760;28;24435;-80
2022/08/29 02:03:00;;;;;;;4.47;3.50;;;;;;;14.54;100.00;96098.06;5015365;28;24806;-80
2022/08/29 02:05:26;;;;;;;8.00;3.78;;;;;;;14.46;100.00;96104.63;5011145;28;24479;-80
2022/08/29 02:07:53;;;;;;;5.88;4.35;;;;;;;14.41;100.00;96098.91;5018403;28;24527;-80
2022/08/29 02:10:20;;;;;;;5.25;3.95;;;;;;;14.38;100.00;96100.91;5011081;28;24476;-79
2022/08/29 02:12:47;;;;;;;6.87;3.90;;;;;;;14.33;100.00;96100.41;5018947;28;24432;-79
2022/08/29 02:15:17;;;;;;;5.60;4.60;;;;;;;14.32;100.00;96109.19;5011364;28;24449;-79
2022/08/29 02:17:44;;;;;;;6.70;4.63;;;;;;;14.32;100.00;96106.56;5015083;28;24494;-78
2022/08/29 02:20:11;;;;;;;6.53;5.07;;;;;;;14.37;100.00;96105.28;5022299;28;24443;-78
2022/08/29 02:22:39;;;;;;;5.07;4.63;;;;;;;14.46;100.00;96101.16;5011336;28;24432;-79
2022/08/29 02:27:51;;;;;;;5.43;4.93;;;;;;;14.36;100.00;96097.59;5015713;28;24962;-79
2022/08/29 02:30:19;;;;;;;6.13;4.97;;;;;;;14.36;100.00;96097.59;5022504;28;24554;-79
2022/08/29 02:32:47;;;;;;;8.60;5.87;;;;;;;14.38;100.00;96093.91;5014819;28;24461;-79
2022/08/29 02:35:14;;;;;;;6.10;5.38;;;;;;;14.48;100.00;96091.47;5009328;28;24464;-78
2022/08/29 02:37:41;;;;;;;5.00;4.57;;;;;;;14.52;100.00;96090.34;5015570;28;24993;-79
2022/08/29 02:40:08;;;;;;;5.03;4.10;;;;;;;14.48;100.00;96096.69;5018057;28;24455;-79
2022/08/29 02:42:35;;;;;;;4.45;3.60;;;;;;;14.41;100.00;96095.47;5009910;28;24836;-78
2022/08/29 02:45:02;;;;;;;3.63;3.28;;;;;;;14.28;100.00;96091.16;5007976;28;24474;-78
2022/08/29 02:47:30;;;;;;;4.57;3.13;;;;;;;14.25;100.00;96096.59;5013165;28;24556;-77
2022/08/29 02:49:57;;;;;;;9.32;3.63;;;;;;;14.28;100.00;96101.59;5021072;28;24444;-77
2022/08/29 02:52:23;;;;;;;4.00;3.60;;;;;;;14.23;100.00;96095.84;5019800;28;24448;-79
2022/08/29 02:54:50;;;;;;;6.70;4.00;;;;;;;14.27;100.00;96094.69;5022413;28;24447;-78
2022/08/29 02:57:16;;;;;;;5.68;3.90;;;;;;;14.22;100.00;96089.00;5018261;28;24471;-79
2022/08/29 02:59:43;;;;;;;4.35;3.53;;;;;;;14.18;100.00;96100.56;5019100;28;24448;-79
2022/08/29 03:02:09;;;;;;;6.97;3.30;;;;;;;14.08;100.00;96099.56;5017554;28;24503;-79
2022/08/29 03:04:37;;;;;;;4.15;3.30;;;;;;;14.12;100.00;96095.78;5020975;28;24431;-79
2022/08/29 03:07:05;;;;;;;5.43;3.33;;;;;;;14.11;100.00;96093.31;5016981;28;24520;-78
2022/08/29 03:09:31;;;;;;;4.17;3.77;;;;;;;13.97;100.00;96099.50;5018824;28;24639;-78
2022/08/29 03:11:58;;;;;;;6.00;3.95;;;;;;;13.96;100.00;96100.44;5015578;28;24454;-79
2022/08/29 03:14:24;;;;;;;5.70;3.90;;;;;;;13.97;100.00;96087.31;5012209;28;24436;-79
2022/08/29 03:16:51;;;;;;;4.65;4.15;;;;;;;13.95;100.00;96088.38;5018979;28;24447;-78
2022/08/29 03:19:18;;;;;;;6.80;4.78;;;;;;;13.94;100.00;96087.56;5012421;28;24449;-79
2022/08/29 03:21:46;;;;;;;5.90;4.60;;;;;;;13.82;100.00;96088.41;5012166;28;24836;-79
2022/08/29 03:24:12;;;;;;;5.72;4.88;;;;;;;13.80;100.00;96080.72;5008520;28;24439;-78
2022/08/29 03:26:39;;;;;;;5.70;4.80;;;;;;;13.86;100.00;96089.00;5017368;28;24455;-77
2022/08/29 03:29:05;;;;;;;5.18;4.32;;;;;;;13.80;100.00;96088.53;5010790;28;25020;-78
2022/08/29 03:31:32;;;;;;;5.20;4.50;;;;;;;13.85;100.00;96089.97;5017083;28;24455;-79
2022/08/29 03:33:58;;;;;;;6.57;4.40;;;;;;;13.78;100.00;96082.56;5005096;28;24437;-79
2022/08/29 03:36:26;;;;;;;6.05;4.30;;;;;;;13.77;100.00;96082.69;5017889;28;24458;-78
2022/08/29 03:38:54;;;;;;;4.95;4.30;;;;;;;13.79;100.00;96075.59;5023010;28;24437;-79
2022/08/29 03:41:22;;;;;;;7.60;4.70;;;;;;;13.74;100.00;96077.69;5025055;28;24463;-78
2022/08/29 03:43:48;;;;;;;5.50;4.60;;;;;;;13.83;100.00;96084.00;5010574;28;24439;-78
2022/08/29 03:46:15;;;;;;;5.30;3.78;;;;;;;13.89;100.00;96078.38;5024968;28;24428;-78
2022/08/29 03:48:41;;;;;;;4.10;3.58;;;;;;;13.93;100.00;96087.63;5016684;28;24480;-79
2022/08/29 03:51:09;;;;;;;3.80;3.40;;;;;;;13.80;100.00;96083.31;5025855;28;24436;-78
2022/08/29 03:53:35;;;;;;;4.30;3.72;;;;;;;13.70;100.00;96094.47;4998990;28;24444;-78
2022/08/29 03:56:04;;;;;;;4.07;3.40;;;;;;;13.71;100.00;96103.94;5016676;28;25011;-78
2022/08/29 03:58:31;;;;;;;4.38;3.63;;;;;;;13.71;100.00;96098.72;5022353;28;24464;-79
2022/08/29 04:00:58;;;;;;;4.32;3.60;;;;;;;13.70;100.00;96100.50;5012075;28;24455;-79
2022/08/29 04:03:25;;;;;;;4.85;4.13;;;;;;;13.70;100.00;96103.09;5017621;28;25714;-79
2022/08/29 04:05:52;;;;;;;6.72;4.05;;;;;;;13.74;100.00;96095.91;5023777;28;24441;-79
2022/08/29 04:08:18;;;;;;;5.88;4.78;;;;;;;13.73;100.00;96102.91;5016425;28;24489;-78
2022/08/29 04:10:45;;;;;;;5.47;4.80;;;;;;;13.60;100.00;96096.88;5020023;28;24997;-79
2022/08/29 04:13:13;;;;;;;5.30;4.65;;;;;;;13.58;100.00;96095.34;5015810;28;24435;-78
2022/08/29 04:15:41;;;;;;;6.40;4.60;;;;;;;13.59;100.00;96095.22;5014735;28;24507;-78
2022/08/29 04:18:10;;;;;;;5.70;4.55;;;;;;;13.59;100.00;96095.22;5022281;28;24447;-79
2022/08/29 04:20:40;;;;;;;5.07;4.57;;;;;;;13.63;100.00;96094.06;5008044;28;24499;-79
2022/08/29 04:23:07;;;;;;;6.28;4.82;;;;;;;13.70;100.00;96095.31;5019040;28;24989;-78
2022/08/29 04:25:35;;;;;;;5.05;3.95;;;;;;;13.74;100.00;96095.91;5016499;28;24464;-78
2022/08/29 04:28:03;;;;;;;4.97;3.88;;;;;;;13.67;100.00;96100.72;5006570;28;24440;-78
2022/08/29 04:30:31;;;;;;;3.83;3.42;;;;;;;13.60;100.00;96099.47;5016007;28;24445;-78
2022/08/29 04:32:58;;;;;;;5.13;3.80;;;;;;;13.56;100.00;96098.84;5023348;28;24798;-78
2022/08/29 04:35:24;;;;;;;5.57;3.87;;;;;;;13.53;100.00;96103.44;5012944;28;24457;-76
2022/08/29 04:37:51;;;;;;;6.47;3.78;;;;;;;13.41;100.00;96102.53;5020019;28;24810;-77
2022/08/29 04:40:20;;;;;;;4.53;3.83;;;;;;;13.40;100.00;96100.03;5022120;28;24436;-75
2022/08/29 04:42:47;;;;;;;4.90;4.25;;;;;;;13.41;100.00;96105.13;5005033;28;24811;-75
2022/08/29 04:45:17;;;;;;;5.28;4.78;;;;;;;13.35;100.00;96095.16;5003261;28;24432;-74
2022/08/29 04:47:46;;;;;;;6.65;5.00;;;;;;;13.28;100.00;96094.75;5016147;28;24459;-75
2022/08/29 04:50:17;;;;;;;5.63;4.57;;;;;;;13.35;100.00;96095.16;5011110;28;24440;-74
2022/08/29 04:52:43;;;;;;;6.53;5.28;;;;;;;13.36;100.00;96095.97;5018145;28;24463;-75
2022/08/29 04:55:11;;;;;;;8.00;5.63;;;;;;;13.43;100.00;96102.44;5011216;28;24448;-76
2022/08/29 04:57:38;;;;;;;5.22;3.85;;;;;;;13.50;100.00;96108.88;5019033;28;24440;-76
2022/08/29 05:00:10;;;;;;;4.37;3.70;;;;;;;13.50;100.00;96111.47;5019537;28;24798;-76
2022/08/29 05:02:37;;;;;;;5.32;3.25;;;;;;;13.42;100.00;96111.16;5019942;28;24501;-75
2022/08/29 05:05:07;;;;;;;3.67;3.38;;;;;;;13.31;100.00;96109.28;5018148;28;24535;-76
2022/08/29 05:07:33;;;;;;;5.47;4.10;;;;;;;13.21;100.00;96116.88;5003566;28;25009;-76
2022/08/29 05:10:03;;;;;;;3.72;3.30;;;;;;;13.25;100.00;96120.13;5013361;28;24447;-76
2022/08/29 05:12:32;;;;;;;3.90;2.83;;;;;;;13.26;100.00;96125.22;5015657;28;24522;-75
2022/08/29 05:14:59;;;;;;;2.88;2.67;;;;;;;13.28;100.00;96133.75;5017024;28;24789;-76
2022/08/29 05:17:26;;;;;;;2.85;2.63;;;;;;;13.31;100.00;96130.09;5023067;28;24432;-76
2022/08/29 05:19:52;;;;;;;2.70;2.50;;;;;;;13.38;100.00;96135.72;5021797;28;24432;-76
2022/08/29 05:22:20;;;;;;;4.07;3.67;;;;;;;13.55;100.00;96130.19;5022755;28;24440;-76
2022/08/29 05:24:48;;;;;;;4.25;3.90;;;;;;;13.71;100.00;96130.78;5001284;28;24447;-76
2022/08/29 05:27:17;;;;;;;4.28;3.83;;;;;;;13.73;100.00;96130.72;5018199;28;24428;-76
2022/08/29 05:29:46;;;;;;;4.45;3.88;;;;;;;13.79;100.00;96122.44;5006513;28;24445;-76
2022/08/29 05:32:14;;;;;;;5.32;3.85;;;;;;;13.88;100.00;96128.81;5015590;28;24432;-77
2022/08/29 05:34:42;;;;;;;5.78;4.05;;;;;;;13.96;100.00;96118.69;5015607;28;24443;-76
2022/08/29 05:37:11;;;;;;;5.50;4.80;;;;;;;14.05;100.00;96123.22;5019778;28;24448;-77
2022/08/29 05:39:40;;;;;;;6.33;4.97;;;;;;;14.19;100.00;96120.47;5014465;28;24542;-75
2022/08/29 05:42:09;;;;;;;6.90;5.00;;;;;;;14.38;100.00;96129.56;5022979;28;24436;-77
2022/08/29 05:44:37;;;;;;;5.50;5.07;;;;;;;14.51;100.00;96131.22;5027219;28;25075;-76
2022/08/29 05:47:05;;;;;;;5.88;5.38;;;;;;;14.59;100.00;96138.47;5013354;28;24444;-77
2022/08/29 05:49:31;;;;;;;7.00;6.30;;;;;;;14.60;100.00;96137.53;5018163;28;24451;-76
2022/08/29 05:51:59;;;;;;;6.85;6.15;;;;;;;14.61;100.00;96141.81;5011392;28;24447;-75
2022/08/29 05:54:26;;;;;;;6.32;5.70;;;;;;;14.61;100.00;96139.22;5006729;28;24456;-76
2022/08/29 05:56:54;;;;;;;6.95;5.85;;;;;;;14.57;100.00;96142.13;5006630;28;24457;-77
2022/08/29 05:59:20;;;;;;;8.43;5.70;;;;;;;14.38;100.00;96146.03;5016444;28;24527;-78
2022/08/29 06:01:47;;;;;;;6.20;5.50;;;;;;;14.35;100.00;96150.63;5011750;28;24992;-75
2022/08/29 06:04:13;;;;;;;7.03;5.55;;;;;;;14.48;100.00;96161.84;5020677;28;24443;-75
2022/08/29 06:06:41;;;;;;;7.63;5.50;;;;;;;14.60;100.00;96162.75;5010526;28;24464;-76
2022/08/29 06:09:08;;;;;;;5.85;5.20;;;;;;;14.66;100.00;96163.16;5019681;28;24459;-76
2022/08/29 06:11:35;;;;;;;6.60;5.85;;;;;;;14.90;100.00;96164.91;5005607;28;25227;-75
2022/08/29 06:14:03;;;;;;;8.60;5.18;;;;;;;15.11;100.00;96162.47;5006252;28;24436;-76
2022/08/29 06:16:31;;;;;;;7.67;5.97;;;;;;;15.29;100.00;96152.44;5018066;28;24479;-76
2022/08/29 06:18:58;;;;;;;6.65;5.90;;;;;;;15.39;100.00;96150.81;5016059;28;24502;-75
2022/08/29 06:21:25;;;;;;;6.85;5.43;;;;;;;15.47;100.00;96158.88;5020946;28;24519;-76
2022/08/29 06:23:52;;;;;;;6.83;5.77;;;;;;;15.43;100.00;96154.84;5006335;28;24444;-69
2022/08/29 06:26:18;;;;;;;12.43;5.72;;;;;;;15.55;100.00;96160.91;5008654;28;24447;-75
2022/08/29 06:28:46;;;;;;;7.72;5.40;;;;;;;15.82;100.00;96157.97;5019875;28;24433;-74
2022/08/29 06:31:16;;;;;;;6.93;5.70;;;;;;;16.06;100.00;96157.88;5022693;28;24436;-75
2022/08/29 06:33:43;;;;;;;10.93;6.47;;;;;;;16.33;100.00;96160.91;5017304;28;24446;-75
2022/08/29 06:36:10;;;;;;;7.13;6.35;;;;;;;16.54;100.00;96163.59;5013668;28;24452;-76
2022/08/29 06:38:37;;;;;;;10.02;6.70;;;;;;;16.61;100.00;96163.91;5009135;28;24538;-75
2022/08/29 06:41:05;;;;;;;8.95;6.00;;;;;;;16.84;100.00;96162.09;5011345;28;25901;-75
2022/08/29 06:43:31;;;;;;;7.88;5.75;;;;;;;17.01;100.00;96166.75;5005474;28;25024;-75
2022/08/29 06:45:58;;;;;;;7.63;5.70;;;;;;;17.21;100.00;96164.31;5010929;28;24795;-75
2022/08/29 06:48:26;;;;;;;7.07;6.10;;;;;;;17.40;100.00;96170.47;5015392;28;24432;-75
2022/08/29 06:50:53;;;;;;;7.88;5.55;;;;;;;17.32;100.00;96159.00;5013205;28;24456;-76
2022/08/29 06:53:20;;;;;;;8.68;5.65;;;;;;;17.11;100.00;96167.66;5012517;28;24439;-75
2022/08/29 06:55:47;;;;;;;6.33;5.40;;;;;;;17.25;100.00;96168.31;5013380;28;24888;-76
2022/08/29 06:58:14;;;;;;;8.38;5.40;;;;;;;17.01;100.00;96179.84;5016401;28;24450;-75
2022/08/29 07:00:41;;;;;;;6.35;5.60;;;;;;;16.91;100.00;96178.97;5005675;28;24811;-76
2022/08/29 07:03:07;;;;;;;7.78;5.90;;;;;;;16.96;100.00;96181.19;4995725;28;24795;-76
2022/08/29 07:05:36;;;;;;;8.70;5.25;;;;;;;17.27;100.00;96184.72;5002578;28;24444;-76
2022/08/29 07:08:03;;;;;;;7.53;5.67;;;;;;;17.38;100.00;96182.03;4999250;28;24561;-76
2022/08/29 07:10:30;;;;;;;7.88;5.30;;;;;;;17.50;100.00;96191.50;5017424;28;24448;-77
2022/08/29 07:12:57;;;;;;;9.80;5.57;;;;;;;17.90;100.00;96175.03;4995208;28;24448;-76
2022/08/29 07:15:24;;;;;;;7.97;5.18;;;;;;;18.38;100.00;96179.63;4999173;28;24494;-76
2022/08/29 07:17:50;;;;;;;10.48;4.57;;;;;;;18.83;100.00;96177.38;4997355;28;24460;-76
2022/08/29 07:20:17;;;;;;;10.52;5.13;;;;;;;19.15;99.32;96180.69;4999008;28;25010;-77
2022/08/29 07:22:49;;;;;;;6.15;5.00;;;;;;;19.41;95.04;96187.03;5014541;28;24479;-77
2022/08/29 07:25:17;;;;;;;7.32;5.40;;;;;;;19.50;91.85;96185.34;5018542;28;24490;-77
2022/08/29 07:27:43;;;;;;;8.95;5.45;;;;;;;19.46;93.46;96189.22;5017489;28;24433;-77
2022/08/29 07:30:15;;;;;;;9.82;5.45;;;;;;;19.71;90.36;96186.03;5017447;28;24444;-77
2022/08/29 07:32:43;;;;;;;7.07;5.17;;;;;;;20.08;89.38;96189.66;5017826;28;24536;-78
2022/08/29 07:35:10;;;;;;;7.40;5.10;;;;;;;20.33;88.59;96196.06;5012152;28;24447;-78
2022/08/29 07:37:37;;;;;;;9.00;5.50;;;;;;;20.57;88.87;96196.34;5004065;28;25025;-77
2022/08/29 07:40:06;;;;;;;7.97;5.03;;;;;;;20.83;85.58;96190.38;5018086;28;24451;-78
2022/08/29 07:42:33;;;;;;;8.35;5.30;;;;;;;20.91;85.83;96191.28;5010840;28;24439;-79
2022/08/29 07:44:59;;;;;;;8.07;5.10;;;;;;;21.09;84.34;96193.91;5022896;28;24452;-78
2022/08/29 07:47:27;;;;;;;7.00;4.78;;;;;;;21.27;83.95;96191.28;4997843;28;25085;-79
2022/08/29 07:49:54;;;;;;;6.38;5.18;;;;;;;21.24;86.28;96192.38;5009223;28;24441;-78
2022/08/29 07:52:21;;;;;;;7.43;5.03;;;;;;;20.95;83.52;96187.38;5022195;28;24455;-79
2022/08/29 07:54:47;;;;;;;12.43;5.28;;;;;;;20.73;86.36;96196.53;5007919;28;24437;-79
2022/08/29 07:57:17;;;;;;;10.00;5.45;;;;;;;21.10;88.45;96195.59;5014592;28;24468;-79
2022/08/29 07:59:44;;;;;;;8.15;5.40;;;;;;;21.56;89.27;96198.13;5004785;28;24445;-77
2022/08/29 08:02:11;;;;;;;9.60;5.68;;;;;;;21.46;82.52;96196.38;5020279;28;24440;-78
2022/08/29 08:04:37;;;;;;;13.27;5.22;;;;;;;21.32;83.22;96189.03;5023161;28;24805;-78
2022/08/29 08:07:04;;;;;;;7.45;5.10;;;;;;;21.19;84.67;96185.94;5020950;28;25020;-75
2022/08/29 08:09:31;;;;;;;12.23;5.55;;;;;;;20.96;86.77;96185.56;5012021;28;25950;-76
2022/08/29 08:11:57;;;;;;;9.10;5.20;;;;;;;21.14;85.87;96183.75;5005367;28;24438;-76
2022/08/29 08:14:25;;;;;;;9.18;5.63;;;;;;;21.13;86.97;96182.09;5008474;28;24437;-76
2022/08/29 08:16:52;;;;;;;6.32;5.07;;;;;;;21.14;86.82;96181.13;5019517;28;24470;-76
2022/08/29 08:19:19;;;;;;;7.55;5.38;;;;;;;21.84;90.92;96185.59;5018861;28;24440;-75
2022/08/29 08:21:45;;;;;;;8.95;5.65;;;;;;;22.39;86.62;96188.69;5016410;28;25058;-76
2022/08/29 08:24:12;;;;;;;7.72;5.05;;;;;;;22.60;82.20;96185.66;5009602;28;24439;-76
2022/08/29 08:26:38;;;;;;;7.90;5.20;;;;;;;22.89;80.89;96192.31;5013982;28;24450;-76
2022/08/29 08:29:05;;;;;;;8.90;5.15;;;;;;;23.14;79.13;96195.88;5010682;28;24435;-76
2022/08/29 08:31:33;;;;;;;7.88;5.18;;;;;;;23.16;77.28;96193.88;5003037;28;24440;-76
2022/08/29 08:33:59;;;;;;;9.17;5.37;;;;;;;23.04;78.99;96200.47;5017789;28;24451;-77
2022/08/29 08:36:29;;;;;;;9.10;5.03;;;;;;;22.89;78.15;96202.88;5023436;28;24453;-76
2022/08/29 08:38:57;;;;;;;8.48;4.88;;;;;;;22.64;78.73;96205.47;5008184;28;24965;-76
2022/08/29 08:41:34;;;;;;;6.65;4.93;;;;;;;22.92;78.73;96198.16;5021572;28;24447;-76
2022/08/29 08:44:05;;;;;;;7.85;4.85;;;;;;;22.92;78.90;96198.16;5009497;28;24522;-76
2022/08/29 08:46:38;;;;;;;10.23;5.30;;;;;;;22.63;78.06;96198.53;5019932;28;24535;-76
2022/08/29 08:49:09;;;;;;;8.47;4.77;;;;;;;22.76;77.08;96192.78;5002071;28;24433;-75
2022/08/29 08:51:42;;;;;;;11.85;5.60;;;;;;;23.31;81.48;96196.69;5004599;28;24433;-77
2022/08/29 08:54:14;;;;;;;7.93;5.40;;;;;;;23.84;78.13;96198.84;4998432;28;24848;-77
2022/08/29 08:56:44;;;;;;;6.10;4.93;;;;;;;24.14;74.76;96197.28;5007158;28;24997;-76
2022/08/29 08:59:16;;;;;;;7.65;5.00;;;;;;;23.64;73.37;96202.78;5008789;28;24448;-75
2022/08/29 09:01:55;;;;;;;6.60;4.47;;;;;;;23.65;72.10;96196.50;5006605;28;25026;-75
2022/08/29 09:04:37;;;;;;;8.20;4.53;;;;;;;24.14;72.22;96207.03;5005592;28;24444;-76
2022/08/29 09:07:17;;;;;;;12.52;4.72;;;;;;;24.06;70.79;96209.69;5014422;28;24474;-77
2022/08/29 09:09:55;;;;;;;6.63;4.72;;;;;;;24.48;69.54;96206.78;5010242;28;24447;-77
2022/08/29 09:12:34;;;;;;;7.43;4.72;;;;;;;24.54;68.09;96202.59;5016570;28;24996;-77
2022/08/29 09:15:07;;;;;;;6.10;4.37;;;;;;;24.41;68.88;96207.63;5013809;28;24462;-80
2022/08/29 09:17:41;;;;;;;4.43;4.00;;;;;;;24.08;68.74;96205.06;5025972;28;25045;-78
2022/08/29 09:20:12;;;;;;;6.95;3.83;;;;;;;23.80;71.22;96208.06;5020368;28;24444;-77
2022/08/29 09:22:40;;;;;;;11.57;4.22;;;;;;;24.45;66.55;96208.94;5019393;28;24443;-77
2022/08/29 09:25:09;;;;;;;8.80;3.63;;;;;;;24.71;64.35;96201.53;5008490;28;24531;-77
2022/08/29 09:27:38;;;;;;;5.32;4.00;;;;;;;24.80;65.64;96207.59;5021568;28;24432;-77
2022/08/29 09:30:08;;;;;;;8.63;4.15;;;;;;;24.90;67.04;96202.91;5014562;28;24448;-77
2022/08/29 09:32:52;;;;;;;18.40;4.27;;;;;;;24.76;65.68;96199.19;5012122;28;24435;-77
2022/08/29 09:35:23;;;;;;;8.63;4.37;;;;;;;24.17;65.38;96198.72;5018375;28;24438;-77
2022/08/29 09:37:55;;;;;;;6.63;3.90;;;;;;;24.51;66.82;96202.94;5012291;28;24539;-77
2022/08/29 09:40:22;;;;;;;8.05;4.13;;;;;;;25.21;63.82;96199.44;5005448;28;24443;-76
2022/08/29 09:43:00;;;;;;;6.57;3.97;;;;;;;25.36;62.41;96200.31;5009486;28;24528;-76
2022/08/29 09:45:26;;;;;;;5.13;3.80;;;;;;;25.17;62.57;96201.59;5017259;28;24444;-76
2022/08/29 09:48:08;;;;;;;6.40;4.15;;;;;;;25.15;64.88;96197.50;5022234;28;24435;-76
2022/08/29 09:50:35;;;;;;;6.37;3.77;;;;;;;25.42;62.85;96198.78;5010281;28;24889;-77
2022/08/29 09:53:04;;;;;;;7.07;4.10;;;;;;;25.42;61.94;96201.44;5018761;28;24447;-77
2022/08/29 09:55:33;;;;;;;8.13;4.53;;;;;;;25.53;63.36;96198.34;5019281;28;24441;-77
2022/08/29 09:58:04;;;;;;;6.43;3.80;;;;;;;25.59;63.46;96190.50;5026099;28;24460;-77
2022/08/29 10:00:34;;;;;;;7.23;4.50;;;;;;;25.45;61.46;96187.81;5017686;28;24531;-76
2022/08/29 10:03:04;;;;;;;4.88;3.92;;;;;;;25.71;59.84;96190.06;5007512;28;24789;-77
2022/08/29 10:05:43;;;;;;;7.10;4.47;;;;;;;25.86;59.97;96190.94;5023670;28;24446;-76
2022/08/29 10:08:26;;;;;;;9.48;4.85;;;;;;;25.85;61.26;96199.94;5001900;28;24424;-75
2022/08/29 10:10:56;;;;;;;7.20;4.20;;;;;;;25.71;59.34;96193.53;5015622;28;24443;-76
2022/08/29 10:13:26;;;;;;;6.50;4.15;;;;;;;25.59;58.40;96192.34;5024249;28;24523;-76
2022/08/29 10:15:58;;;;;;;8.48;4.13;;;;;;;25.08;59.42;96195.50;5008078;28;24429;-76
2022/08/29 10:18:32;;;;;;;6.93;3.95;;;;;;;25.68;61.25;96198.38;5023763;28;25011;-76
2022/08/29 10:21:15;;;;;;;5.80;4.25;;;;;;;25.80;59.08;96203.09;5009587;28;24440;-76
2022/08/29 10:23:53;;;;;;;7.53;4.47;;;;;;;25.76;59.13;96195.66;5022002;28;24519;-76
2022/08/29 10:26:29;;;;;;;5.47;4.65;;;;;;;25.86;58.22;96192.78;5012093;28;24424;-76
2022/08/29 10:29:03;;;;;;;5.95;4.30;;;;;;;25.72;59.12;96183.75;5012442;28;24514;-76
2022/08/29 10:31:36;;;;;;;6.97;4.07;;;;;;;25.37;59.32;96186.06;5014488;28;24437;-75
2022/08/29 10:34:23;;;;;;;9.90;4.90;;;;;;;25.28;60.81;96187.94;5011008;28;24441;-75
2022/08/29 10:37:01;;;;;;;5.25;4.05;;;;;;;25.09;61.67;96188.38;5017445;28;24467;-75
2022/08/29 10:39:38;;;;;;;9.80;4.60;;;;;;;24.95;64.12;96183.84;4993394;28;24432;-75
2022/08/29 10:42:12;;;;;;;11.75;4.43;;;;;;;24.94;63.86;96187.50;5007651;28;20767;-76
2022/08/29 10:44:51;;;;;;;7.57;4.18;;;;;;;24.66;65.96;96189.78;5020122;28;24431;-75
2022/08/29 10:47:25;;;;;;;6.60;4.43;;;;;;;24.58;64.06;96174.78;5023369;28;24431;-76
2022/08/29 10:50:14;;;;;;;8.63;4.45;;;;;;;24.82;65.58;96177.31;5016428;28;25034;-75
2022/08/29 10:52:51;;;;;;;8.43;3.50;;;;;;;25.05;62.73;96179.97;5008413;28;24468;-75
2022/08/29 10:55:31;;;;;;;7.75;3.90;;;;;;;25.02;65.65;96180.31;5015073;28;24431;-75
2022/08/29 10:58:03;;;;;;;9.20;4.40;;;;;;;25.62;62.78;96167.25;5021359;28;25057;-77
2022/08/29 11:00:39;;;;;;;5.33;4.47;;;;;;;25.71;61.97;96174.16;5006290;28;24993;-76
2022/08/29 11:03:12;;;;;;;9.48;4.63;;;;;;;25.87;60.77;96174.00;5010406;28;24439;-77
2022/08/29 11:05:44;;;;;;;6.47;4.25;;;;;;;26.02;60.68;96166.06;5003976;28;24431;-77
2022/08/29 11:08:14;;;;;;;6.70;5.00;;;;;;;25.83;59.42;96176.22;5011577;28;24436;-77
2022/08/29 11:10:48;;;;;;;6.40;4.50;;;;;;;25.66;61.15;96173.84;5006241;28;25133;-77
2022/08/29 11:13:20;;;;;;;5.95;4.18;;;;;;;25.39;60.22;96173.44;5011484;28;24515;-77
2022/08/29 11:15:56;;;;;;;6.78;4.68;;;;;;;25.22;65.02;96166.63;5017483;28;24432;-77
2022/08/29 11:18:28;;;;;;;8.32;4.82;;;;;;;25.80;62.40;96168.59;5010251;28;24471;-77
2022/08/29 11:21:00;;;;;;;9.57;4.60;;;;;;;26.00;61.47;96168.91;5018329;28;24487;-77
2022/08/29 11:23:34;;;;;;;7.45;4.80;;;;;;;26.02;60.86;96164.22;5009673;28;24476;-77
2022/08/29 11:26:06;;;;;;;7.07;4.97;;;;;;;25.93;58.96;96173.31;5015898;28;24438;-77
2022/08/29 11:28:39;;;;;;;9.73;4.20;;;;;;;25.71;59.51;96167.03;5013923;28;24440;-77
2022/08/29 11:31:15;;;;;;;7.68;4.32;;;;;;;25.48;60.60;96166.25;5006699;28;25049;-75
2022/08/29 11:33:48;;;;;;;9.75;4.72;;;;;;;25.51;61.81;96171.16;5019038;28;24435;-75
2022/08/29 11:36:32;;;;;;;8.63;4.95;;;;;;;25.30;61.85;96164.72;5017328;28;24475;-76
2022/08/29 11:39:32;;;;;;;9.07;5.03;;;;;;;25.20;59.58;96163.31;5016963;28;24432;-75